sensor_id;sensor_type;location;lat;lon;timestamp;P1;durP1;ratioP1;P2;durP2;ratioP2
8139;SDS011;4111;50.972;7.072;2022-08-11T00:01:16;2.95;;;2.63;;
8139;SDS011;4111;50.972;7.072;2022-08-11T00:03:56;4.60;;;3.20;;
8139;SDS011;4111;50.972;7.072;2022-08-11T00:06:25;4.55;;;3.03;;
8139;SDS011;4111;50.972;7.072;2022-08-11T00:08:55;3.63;;;3.33;;
8139;SDS011;4111;50.972;7.072;2022-08-11T00:17:06;3.00;;;2.80;;
8139;SDS011;4111;50.972;7.072;2022-08-11T00:19:37;3.00;;;2.80;;
8139;SDS011;4111;50.972;7.072;2022-08-11T00:22:26;3.50;;;3.03;;
8139;SDS011;4111;50.972;7.072;2022-08-11T00:24:55;6.00;;;3.00;;
8139;SDS011;4111;50.972;7.072;2022-08-11T00:27:33;3.55;;;3.08;;
8139;SDS011;4111;50.972;7.072;2022-08-11T00:30:02;3.88;;;2.90;;
8139;SDS011;4111;50.972;7.072;2022-08-11T00:32:30;5.28;;;2.85;;
8139;SDS011;4111;50.972;7.072;2022-08-11T00:34:58;4.20;;;2.97;;
8139;SDS011;4111;50.972;7.072;2022-08-11T00:37:47;4.47;;;2.78;;
8139;SDS011;4111;50.972;7.072;2022-08-11T00:40:17;3.28;;;2.88;;
8139;SDS011;4111;50.972;7.072;2022-08-11T00:45:54;3.00;;;2.80;;
8139;SDS011;4111;50.972;7.072;2022-08-11T00:48:52;3.78;;;2.97;;
8139;SDS011;4111;50.972;7.072;2022-08-11T00:54:55;6.18;;;3.05;;
8139;SDS011;4111;50.972;7.072;2022-08-11T01:00:13;3.42;;;2.88;;
8139;SDS011;4111;50.972;7.072;2022-08-11T01:11:45;4.85;;;3.00;;
8139;SDS011;4111;50.972;7.072;2022-08-11T01:40:25;2.83;;;2.63;;
8139;SDS011;4111;50.972;7.072;2022-08-11T01:48:42;3.10;;;2.87;;
8139;SDS011;4111;50.972;7.072;2022-08-11T01:56:37;3.70;;;2.73;;
8139;SDS011;4111;50.972;7.072;2022-08-11T01:59:14;3.72;;;3.25;;
8139;SDS011;4111;50.972;7.072;2022-08-11T02:01:50;6.30;;;3.50;;
8139;SDS011;4111;50.972;7.072;2022-08-11T02:04:29;2.90;;;2.60;;
8139;SDS011;4111;50.972;7.072;2022-08-11T02:07:01;3.73;;;3.10;;
8139;SDS011;4111;50.972;7.072;2022-08-11T02:09:52;3.77;;;2.80;;
8139;SDS011;4111;50.972;7.072;2022-08-11T02:12:51;3.63;;;3.23;;
8139;SDS011;4111;50.972;7.072;2022-08-11T02:15:34;3.63;;;2.80;;
8139;SDS011;4111;50.972;7.072;2022-08-11T02:18:21;4.77;;;3.07;;
8139;SDS011;4111;50.972;7.072;2022-08-11T02:21:14;3.87;;;3.00;;
8139;SDS011;4111;50.972;7.072;2022-08-11T02:24:13;3.80;;;2.83;;
8139;SDS011;4111;50.972;7.072;2022-08-11T02:26:48;3.30;;;3.10;;
8139;SDS011;4111;50.972;7.072;2022-08-11T02:29:24;5.13;;;3.10;;
8139;SDS011;4111;50.972;7.072;2022-08-11T02:32:04;5.63;;;3.17;;
8139;SDS011;4111;50.972;7.072;2022-08-11T02:35:03;3.50;;;3.20;;
8139;SDS011;4111;50.972;7.072;2022-08-11T02:43:19;3.87;;;3.27;;
8139;SDS011;4111;50.972;7.072;2022-08-11T02:48:57;3.10;;;2.80;;
8139;SDS011;4111;50.972;7.072;2022-08-11T02:54:43;3.50;;;3.20;;
8139;SDS011;4111;50.972;7.072;2022-08-11T02:57:36;3.30;;;3.00;;
8139;SDS011;4111;50.972;7.072;2022-08-11T03:00:08;4.13;;;3.37;;
8139;SDS011;4111;50.972;7.072;2022-08-11T03:08:28;4.03;;;3.10;;
8139;SDS011;4111;50.972;7.072;2022-08-11T03:11:21;4.60;;;3.30;;
8139;SDS011;4111;50.972;7.072;2022-08-11T03:17:49;3.60;;;3.30;;
8139;SDS011;4111;50.972;7.072;2022-08-11T03:23:08;3.47;;;3.17;;
8139;SDS011;4111;50.972;7.072;2022-08-11T03:32:10;9.63;;;3.30;;
8139;SDS011;4111;50.972;7.072;2022-08-11T03:34:46;5.20;;;3.43;;
8139;SDS011;4111;50.972;7.072;2022-08-11T03:37:30;3.67;;;3.23;;
8139;SDS011;4111;50.972;7.072;2022-08-11T03:46:28;3.57;;;2.93;;
8139;SDS011;4111;50.972;7.072;2022-08-11T04:11:36;4.80;;;3.50;;
8139;SDS011;4111;50.972;7.072;2022-08-11T04:26:34;5.67;;;3.83;;
8139;SDS011;4111;50.972;7.072;2022-08-11T04:29:49;3.73;;;3.33;;
8139;SDS011;4111;50.972;7.072;2022-08-11T04:35:38;4.53;;;4.13;;
8139;SDS011;4111;50.972;7.072;2022-08-11T04:41:17;6.17;;;3.80;;
8139;SDS011;4111;50.972;7.072;2022-08-11T04:52:43;4.03;;;3.57;;
8139;SDS011;4111;50.972;7.072;2022-08-11T04:56:05;5.23;;;3.97;;
8139;SDS011;4111;50.972;7.072;2022-08-11T04:59:19;5.10;;;3.80;;
8139;SDS011;4111;50.972;7.072;2022-08-11T05:05:17;6.27;;;3.93;;
8139;SDS011;4111;50.972;7.072;2022-08-11T05:11:18;5.23;;;4.00;;
8139;SDS011;4111;50.972;7.072;2022-08-11T05:16:58;3.90;;;3.50;;
8139;SDS011;4111;50.972;7.072;2022-08-11T05:19:47;3.60;;;3.37;;
8139;SDS011;4111;50.972;7.072;2022-08-11T05:22:33;3.83;;;3.53;;
8139;SDS011;4111;50.972;7.072;2022-08-11T05:25:28;4.27;;;3.77;;
8139;SDS011;4111;50.972;7.072;2022-08-11T05:28:39;6.97;;;3.60;;
8139;SDS011;4111;50.972;7.072;2022-08-11T05:31:47;4.00;;;3.40;;
8139;SDS011;4111;50.972;7.072;2022-08-11T05:34:46;4.23;;;3.37;;
8139;SDS011;4111;50.972;7.072;2022-08-11T05:39:54;3.60;;;3.40;;
8139;SDS011;4111;50.972;7.072;2022-08-11T05:42:48;3.80;;;3.50;;
8139;SDS011;4111;50.972;7.072;2022-08-11T05:45:38;3.97;;;3.17;;
8139;SDS011;4111;50.972;7.072;2022-08-11T05:48:34;5.53;;;3.50;;
8139;SDS011;4111;50.972;7.072;2022-08-11T05:51:20;5.90;;;3.53;;
8139;SDS011;4111;50.972;7.072;2022-08-11T05:54:20;4.07;;;3.27;;
8139;SDS011;4111;50.972;7.072;2022-08-11T05:57:06;3.67;;;3.13;;
8139;SDS011;4111;50.972;7.072;2022-08-11T05:59:34;5.70;;;3.33;;
8139;SDS011;4111;50.972;7.072;2022-08-11T06:02:02;4.87;;;2.83;;
8139;SDS011;4111;50.972;7.072;2022-08-11T06:04:31;10.67;;;3.50;;
8139;SDS011;4111;50.972;7.072;2022-08-11T06:07:17;6.30;;;2.93;;
8139;SDS011;4111;50.972;7.072;2022-08-11T06:09:51;4.72;;;2.95;;
8139;SDS011;4111;50.972;7.072;2022-08-11T06:12:21;3.93;;;3.33;;
8139;SDS011;4111;50.972;7.072;2022-08-11T06:14:52;8.40;;;3.13;;
8139;SDS011;4111;50.972;7.072;2022-08-11T06:17:24;5.30;;;3.50;;
8139;SDS011;4111;50.972;7.072;2022-08-11T06:20:05;5.97;;;3.20;;
8139;SDS011;4111;50.972;7.072;2022-08-11T06:22:44;6.47;;;3.30;;
8139;SDS011;4111;50.972;7.072;2022-08-11T06:25:18;6.10;;;2.90;;
8139;SDS011;4111;50.972;7.072;2022-08-11T06:27:45;4.37;;;2.90;;
8139;SDS011;4111;50.972;7.072;2022-08-11T06:30:31;6.67;;;3.10;;
8139;SDS011;4111;50.972;7.072;2022-08-11T06:33:00;7.87;;;3.10;;
8139;SDS011;4111;50.972;7.072;2022-08-11T06:35:45;11.47;;;3.37;;
8139;SDS011;4111;50.972;7.072;2022-08-11T06:38:45;11.18;;;3.58;;
8139;SDS011;4111;50.972;7.072;2022-08-11T06:41:23;10.35;;;2.78;;
8139;SDS011;4111;50.972;7.072;2022-08-11T06:46:33;12.45;;;2.90;;
8139;SDS011;4111;50.972;7.072;2022-08-11T06:49:05;11.88;;;3.72;;
8139;SDS011;4111;50.972;7.072;2022-08-11T06:51:54;5.77;;;2.90;;
8139;SDS011;4111;50.972;7.072;2022-08-11T06:54:31;7.50;;;3.42;;
8139;SDS011;4111;50.972;7.072;2022-08-11T06:57:12;5.88;;;3.45;;
8139;SDS011;4111;50.972;7.072;2022-08-11T06:59:58;7.10;;;3.20;;
8139;SDS011;4111;50.972;7.072;2022-08-11T07:02:48;7.70;;;3.00;;
8139;SDS011;4111;50.972;7.072;2022-08-11T07:05:24;5.82;;;3.00;;
8139;SDS011;4111;50.972;7.072;2022-08-11T07:08:04;4.07;;;2.67;;
8139;SDS011;4111;50.972;7.072;2022-08-11T07:14:07;6.35;;;2.70;;
8139;SDS011;4111;50.972;7.072;2022-08-11T07:16:57;5.50;;;2.45;;
8139;SDS011;4111;50.972;7.072;2022-08-11T07:19:26;8.57;;;2.90;;
8139;SDS011;4111;50.972;7.072;2022-08-11T07:22:13;6.22;;;2.75;;
8139;SDS011;4111;50.972;7.072;2022-08-11T07:28:01;5.00;;;2.90;;
8139;SDS011;4111;50.972;7.072;2022-08-11T07:30:54;5.22;;;2.67;;
8139;SDS011;4111;50.972;7.072;2022-08-11T07:34:11;3.65;;;2.45;;
8139;SDS011;4111;50.972;7.072;2022-08-11T07:36:54;5.05;;;2.80;;
8139;SDS011;4111;50.972;7.072;2022-08-11T07:39:32;4.82;;;2.63;;
8139;SDS011;4111;50.972;7.072;2022-08-11T07:42:08;4.75;;;2.40;;
8139;SDS011;4111;50.972;7.072;2022-08-11T07:44:36;12.50;;;3.10;;
8139;SDS011;4111;50.972;7.072;2022-08-11T07:47:25;4.85;;;2.30;;
8139;SDS011;4111;50.972;7.072;2022-08-11T07:50:11;4.18;;;2.40;;
8139;SDS011;4111;50.972;7.072;2022-08-11T07:52:57;5.95;;;2.53;;
8139;SDS011;4111;50.972;7.072;2022-08-11T07:55:25;4.00;;;2.40;;
8139;SDS011;4111;50.972;7.072;2022-08-11T07:58:16;2.63;;;2.20;;
8139;SDS011;4111;50.972;7.072;2022-08-11T08:01:11;3.17;;;2.75;;
8139;SDS011;4111;50.972;7.072;2022-08-11T08:04:03;4.25;;;2.65;;
8139;SDS011;4111;50.972;7.072;2022-08-11T08:06:49;5.28;;;2.35;;
8139;SDS011;4111;50.972;7.072;2022-08-11T08:09:36;6.05;;;2.20;;
8139;SDS011;4111;50.972;7.072;2022-08-11T08:12:23;4.97;;;2.45;;
8139;SDS011;4111;50.972;7.072;2022-08-11T08:15:09;2.53;;;2.30;;
8139;SDS011;4111;50.972;7.072;2022-08-11T08:17:56;5.03;;;2.40;;
8139;SDS011;4111;50.972;7.072;2022-08-11T08:20:45;2.90;;;2.30;;
8139;SDS011;4111;50.972;7.072;2022-08-11T08:23:12;8.70;;;2.47;;
8139;SDS011;4111;50.972;7.072;2022-08-11T08:25:41;4.60;;;2.33;;
8139;SDS011;4111;50.972;7.072;2022-08-11T08:28:14;2.55;;;2.33;;
8139;SDS011;4111;50.972;7.072;2022-08-11T08:30:42;2.60;;;2.30;;
8139;SDS011;4111;50.972;7.072;2022-08-11T08:33:13;2.67;;;2.33;;
8139;SDS011;4111;50.972;7.072;2022-08-11T08:35:46;3.20;;;2.30;;
8139;SDS011;4111;50.972;7.072;2022-08-11T08:38:21;4.03;;;2.10;;
8139;SDS011;4111;50.972;7.072;2022-08-11T08:40:49;2.45;;;2.22;;
8139;SDS011;4111;50.972;7.072;2022-08-11T08:43:21;3.33;;;2.30;;
8139;SDS011;4111;50.972;7.072;2022-08-11T08:45:49;5.43;;;2.35;;
8139;SDS011;4111;50.972;7.072;2022-08-11T08:48:20;2.92;;;2.00;;
8139;SDS011;4111;50.972;7.072;2022-08-11T08:50:59;3.17;;;2.22;;
8139;SDS011;4111;50.972;7.072;2022-08-11T08:53:48;5.75;;;2.45;;
8139;SDS011;4111;50.972;7.072;2022-08-11T08:56:19;3.22;;;2.38;;
8139;SDS011;4111;50.972;7.072;2022-08-11T08:58:53;2.95;;;2.53;;
8139;SDS011;4111;50.972;7.072;2022-08-11T09:01:22;3.05;;;2.38;;
8139;SDS011;4111;50.972;7.072;2022-08-11T09:03:51;2.30;;;2.10;;
8139;SDS011;4111;50.972;7.072;2022-08-11T09:06:37;9.55;;;2.85;;
8139;SDS011;4111;50.972;7.072;2022-08-11T09:09:06;4.00;;;1.98;;
8139;SDS011;4111;50.972;7.072;2022-08-11T09:11:38;2.50;;;2.30;;
8139;SDS011;4111;50.972;7.072;2022-08-11T09:14:16;3.22;;;2.17;;
8139;SDS011;4111;50.972;7.072;2022-08-11T09:16:45;2.47;;;2.10;;
8139;SDS011;4111;50.972;7.072;2022-08-11T09:19:14;2.33;;;2.13;;
8139;SDS011;4111;50.972;7.072;2022-08-11T09:21:47;3.85;;;2.33;;
8139;SDS011;4111;50.972;7.072;2022-08-11T09:24:35;11.75;;;2.17;;
8139;SDS011;4111;50.972;7.072;2022-08-11T09:27:22;3.03;;;2.45;;
8139;SDS011;4111;50.972;7.072;2022-08-11T09:29:50;3.70;;;2.47;;
8139;SDS011;4111;50.972;7.072;2022-08-11T09:32:18;6.22;;;2.20;;
8139;SDS011;4111;50.972;7.072;2022-08-11T09:34:47;4.10;;;2.05;;
8139;SDS011;4111;50.972;7.072;2022-08-11T09:37:19;3.42;;;2.20;;
8139;SDS011;4111;50.972;7.072;2022-08-11T09:40:21;5.15;;;2.47;;
8139;SDS011;4111;50.972;7.072;2022-08-11T09:42:55;5.05;;;2.15;;
8139;SDS011;4111;50.972;7.072;2022-08-11T09:45:48;5.88;;;2.08;;
8139;SDS011;4111;50.972;7.072;2022-08-11T09:48:18;5.05;;;2.13;;
8139;SDS011;4111;50.972;7.072;2022-08-11T09:50:50;8.68;;;2.35;;
8139;SDS011;4111;50.972;7.072;2022-08-11T09:53:20;2.92;;;2.17;;
8139;SDS011;4111;50.972;7.072;2022-08-11T09:56:07;4.43;;;2.55;;
8139;SDS011;4111;50.972;7.072;2022-08-11T09:58:55;3.33;;;2.28;;
8139;SDS011;4111;50.972;7.072;2022-08-11T10:01:25;4.95;;;2.50;;
8139;SDS011;4111;50.972;7.072;2022-08-11T10:04:08;4.70;;;2.00;;
8139;SDS011;4111;50.972;7.072;2022-08-11T10:06:56;3.08;;;2.10;;
8139;SDS011;4111;50.972;7.072;2022-08-11T10:09:55;7.45;;;2.15;;
8139;SDS011;4111;50.972;7.072;2022-08-11T10:12:31;3.97;;;2.00;;
8139;SDS011;4111;50.972;7.072;2022-08-11T10:15:03;3.10;;;2.10;;
8139;SDS011;4111;50.972;7.072;2022-08-11T10:17:56;8.73;;;3.13;;
8139;SDS011;4111;50.972;7.072;2022-08-11T10:20:44;2.55;;;2.35;;
8139;SDS011;4111;50.972;7.072;2022-08-11T10:23:17;2.42;;;2.22;;
8139;SDS011;4111;50.972;7.072;2022-08-11T10:26:23;3.92;;;2.22;;
8139;SDS011;4111;50.972;7.072;2022-08-11T10:29:26;4.60;;;2.40;;
8139;SDS011;4111;50.972;7.072;2022-08-11T10:32:37;4.65;;;2.30;;
8139;SDS011;4111;50.972;7.072;2022-08-11T10:35:29;2.95;;;2.50;;
8139;SDS011;4111;50.972;7.072;2022-08-11T10:37:57;3.30;;;2.35;;
8139;SDS011;4111;50.972;7.072;2022-08-11T10:40:44;8.32;;;2.33;;
8139;SDS011;4111;50.972;7.072;2022-08-11T10:43:11;5.65;;;2.20;;
8139;SDS011;4111;50.972;7.072;2022-08-11T10:45:59;2.85;;;2.03;;
8139;SDS011;4111;50.972;7.072;2022-08-11T10:48:55;5.75;;;2.22;;
8139;SDS011;4111;50.972;7.072;2022-08-11T10:51:24;2.42;;;2.10;;
8139;SDS011;4111;50.972;7.072;2022-08-11T10:54:17;2.60;;;2.40;;
8139;SDS011;4111;50.972;7.072;2022-08-11T10:57:04;2.85;;;1.95;;
8139;SDS011;4111;50.972;7.072;2022-08-11T10:59:53;2.40;;;2.20;;
8139;SDS011;4111;50.972;7.072;2022-08-11T11:02:20;3.58;;;2.40;;
8139;SDS011;4111;50.972;7.072;2022-08-11T11:07:49;3.88;;;2.33;;
8139;SDS011;4111;50.972;7.072;2022-08-11T11:10:21;2.45;;;2.25;;
8139;SDS011;4111;50.972;7.072;2022-08-11T11:12:52;2.90;;;2.60;;
8139;SDS011;4111;50.972;7.072;2022-08-11T11:15:42;5.78;;;2.42;;
8139;SDS011;4111;50.972;7.072;2022-08-11T11:18:33;3.65;;;2.33;;
8139;SDS011;4111;50.972;7.072;2022-08-11T11:21:04;3.47;;;2.40;;
8139;SDS011;4111;50.972;7.072;2022-08-11T11:26:38;5.13;;;2.45;;
8139;SDS011;4111;50.972;7.072;2022-08-11T11:32:21;3.28;;;2.33;;
8139;SDS011;4111;50.972;7.072;2022-08-11T11:37:44;3.45;;;2.53;;
8139;SDS011;4111;50.972;7.072;2022-08-11T11:40:29;6.00;;;2.67;;
8139;SDS011;4111;50.972;7.072;2022-08-11T11:42:57;3.65;;;2.05;;
8139;SDS011;4111;50.972;7.072;2022-08-11T11:45:25;5.05;;;2.25;;
8139;SDS011;4111;50.972;7.072;2022-08-11T11:47:53;2.55;;;2.20;;
8139;SDS011;4111;50.972;7.072;2022-08-11T11:50:22;4.43;;;2.30;;
8139;SDS011;4111;50.972;7.072;2022-08-11T11:52:57;4.75;;;2.17;;
8139;SDS011;4111;50.972;7.072;2022-08-11T11:55:26;4.10;;;2.50;;
8139;SDS011;4111;50.972;7.072;2022-08-11T11:57:54;2.40;;;2.20;;
8139;SDS011;4111;50.972;7.072;2022-08-11T12:00:44;6.40;;;2.47;;
8139;SDS011;4111;50.972;7.072;2022-08-11T12:03:31;2.70;;;2.50;;
8139;SDS011;4111;50.972;7.072;2022-08-11T12:05:59;3.17;;;2.58;;
8139;SDS011;4111;50.972;7.072;2022-08-11T12:08:28;2.72;;;2.22;;
8139;SDS011;4111;50.972;7.072;2022-08-11T12:11:00;2.83;;;2.08;;
8139;SDS011;4111;50.972;7.072;2022-08-11T12:13:47;4.07;;;2.13;;
8139;SDS011;4111;50.972;7.072;2022-08-11T12:16:21;8.38;;;2.60;;
8139;SDS011;4111;50.972;7.072;2022-08-11T12:19:11;2.90;;;2.50;;
8139;SDS011;4111;50.972;7.072;2022-08-11T12:21:48;7.82;;;3.53;;
8139;SDS011;4111;50.972;7.072;2022-08-11T12:24:33;4.03;;;2.35;;
8139;SDS011;4111;50.972;7.072;2022-08-11T12:27:20;6.40;;;2.40;;
8139;SDS011;4111;50.972;7.072;2022-08-11T12:30:00;4.45;;;2.40;;
8139;SDS011;4111;50.972;7.072;2022-08-11T12:32:34;3.28;;;2.03;;
8139;SDS011;4111;50.972;7.072;2022-08-11T12:35:03;3.10;;;2.20;;
8139;SDS011;4111;50.972;7.072;2022-08-11T12:37:38;4.80;;;2.67;;
8139;SDS011;4111;50.972;7.072;2022-08-11T12:40:08;2.95;;;2.40;;
8139;SDS011;4111;50.972;7.072;2022-08-11T12:43:17;5.43;;;2.40;;
8139;SDS011;4111;50.972;7.072;2022-08-11T12:46:06;2.83;;;2.40;;
8139;SDS011;4111;50.972;7.072;2022-08-11T12:48:39;5.45;;;2.60;;
8139;SDS011;4111;50.972;7.072;2022-08-11T12:51:33;6.82;;;2.35;;
8139;SDS011;4111;50.972;7.072;2022-08-11T12:54:44;3.75;;;2.22;;
8139;SDS011;4111;50.972;7.072;2022-08-11T12:57:16;4.72;;;2.60;;
8139;SDS011;4111;50.972;7.072;2022-08-11T13:00:05;6.07;;;3.47;;
8139;SDS011;4111;50.972;7.072;2022-08-11T13:02:52;2.80;;;2.50;;
8139;SDS011;4111;50.972;7.072;2022-08-11T13:05:39;4.47;;;2.42;;
8139;SDS011;4111;50.972;7.072;2022-08-11T13:08:10;3.42;;;2.30;;
8139;SDS011;4111;50.972;7.072;2022-08-11T13:10:39;4.40;;;3.15;;
8139;SDS011;4111;50.972;7.072;2022-08-11T13:13:25;8.43;;;3.28;;
8139;SDS011;4111;50.972;7.072;2022-08-11T13:16:12;2.55;;;2.33;;
8139;SDS011;4111;50.972;7.072;2022-08-11T13:18:40;4.60;;;2.08;;
8139;SDS011;4111;50.972;7.072;2022-08-11T13:21:11;3.20;;;2.67;;
8139;SDS011;4111;50.972;7.072;2022-08-11T13:23:46;3.13;;;2.20;;
8139;SDS011;4111;50.972;7.072;2022-08-11T13:26:34;2.53;;;2.10;;
8139;SDS011;4111;50.972;7.072;2022-08-11T13:29:24;2.45;;;2.10;;
8139;SDS011;4111;50.972;7.072;2022-08-11T13:31:53;3.05;;;2.60;;
8139;SDS011;4111;50.972;7.072;2022-08-11T13:34:22;6.35;;;2.50;;
8139;SDS011;4111;50.972;7.072;2022-08-11T13:36:51;2.85;;;2.53;;
8139;SDS011;4111;50.972;7.072;2022-08-11T13:39:20;3.55;;;2.47;;
8139;SDS011;4111;50.972;7.072;2022-08-11T13:41:52;3.15;;;2.20;;
8139;SDS011;4111;50.972;7.072;2022-08-11T13:44:21;3.35;;;2.30;;
8139;SDS011;4111;50.972;7.072;2022-08-11T13:46:53;4.28;;;2.35;;
8139;SDS011;4111;50.972;7.072;2022-08-11T13:49:23;2.60;;;2.40;;
8139;SDS011;4111;50.972;7.072;2022-08-11T13:51:50;2.50;;;2.22;;
8139;SDS011;4111;50.972;7.072;2022-08-11T13:54:20;4.35;;;2.40;;
8139;SDS011;4111;50.972;7.072;2022-08-11T13:56:51;4.40;;;2.47;;
8139;SDS011;4111;50.972;7.072;2022-08-11T13:59:21;3.40;;;2.50;;
8139;SDS011;4111;50.972;7.072;2022-08-11T14:02:00;4.22;;;2.40;;
8139;SDS011;4111;50.972;7.072;2022-08-11T14:07:21;4.97;;;2.50;;
8139;SDS011;4111;50.972;7.072;2022-08-11T14:09:54;3.17;;;2.50;;
8139;SDS011;4111;50.972;7.072;2022-08-11T14:12:25;2.22;;;2.13;;
8139;SDS011;4111;50.972;7.072;2022-08-11T14:15:18;2.63;;;2.38;;
8139;SDS011;4111;50.972;7.072;2022-08-11T14:17:51;5.57;;;2.63;;
8139;SDS011;4111;50.972;7.072;2022-08-11T14:20:22;2.55;;;2.35;;
8139;SDS011;4111;50.972;7.072;2022-08-11T14:23:05;2.58;;;2.38;;
8139;SDS011;4111;50.972;7.072;2022-08-11T14:25:35;3.65;;;2.10;;
8139;SDS011;4111;50.972;7.072;2022-08-11T14:28:26;4.63;;;2.53;;
8139;SDS011;4111;50.972;7.072;2022-08-11T14:31:01;2.40;;;2.20;;
8139;SDS011;4111;50.972;7.072;2022-08-11T14:33:30;3.20;;;2.90;;
8139;SDS011;4111;50.972;7.072;2022-08-11T14:36:19;3.30;;;2.47;;
8139;SDS011;4111;50.972;7.072;2022-08-11T14:38:48;5.90;;;2.63;;
8139;SDS011;4111;50.972;7.072;2022-08-11T14:41:15;5.00;;;2.80;;
8139;SDS011;4111;50.972;7.072;2022-08-11T14:44:22;6.15;;;2.65;;
8139;SDS011;4111;50.972;7.072;2022-08-11T14:47:09;11.98;;;2.83;;
8139;SDS011;4111;50.972;7.072;2022-08-11T14:49:50;3.97;;;2.38;;
8139;SDS011;4111;50.972;7.072;2022-08-11T14:52:37;5.78;;;2.72;;
8139;SDS011;4111;50.972;7.072;2022-08-11T14:55:18;2.40;;;2.30;;
8139;SDS011;4111;50.972;7.072;2022-08-11T14:58:04;2.83;;;2.35;;
8139;SDS011;4111;50.972;7.072;2022-08-11T15:00:33;4.47;;;2.58;;
8139;SDS011;4111;50.972;7.072;2022-08-11T15:03:02;3.05;;;2.63;;
8139;SDS011;4111;50.972;7.072;2022-08-11T15:05:38;4.20;;;2.10;;
8139;SDS011;4111;50.972;7.072;2022-08-11T15:08:24;3.50;;;2.63;;
8139;SDS011;4111;50.972;7.072;2022-08-11T15:11:28;4.68;;;2.67;;
8139;SDS011;4111;50.972;7.072;2022-08-11T15:14:15;4.88;;;2.40;;
8139;SDS011;4111;50.972;7.072;2022-08-11T15:17:06;2.90;;;2.60;;
8139;SDS011;4111;50.972;7.072;2022-08-11T15:19:36;5.10;;;2.50;;
8139;SDS011;4111;50.972;7.072;2022-08-11T15:22:25;4.00;;;3.30;;
8139;SDS011;4111;50.972;7.072;2022-08-11T15:25:10;6.13;;;2.97;;
8139;SDS011;4111;50.972;7.072;2022-08-11T15:27:38;3.00;;;2.65;;
8139;SDS011;4111;50.972;7.072;2022-08-11T15:30:26;5.65;;;2.58;;
8139;SDS011;4111;50.972;7.072;2022-08-11T15:33:12;3.78;;;2.67;;
8139;SDS011;4111;50.972;7.072;2022-08-11T15:36:02;2.72;;;2.50;;
8139;SDS011;4111;50.972;7.072;2022-08-11T15:38:53;6.05;;;2.33;;
8139;SDS011;4111;50.972;7.072;2022-08-11T15:41:26;5.00;;;2.20;;
8139;SDS011;4111;50.972;7.072;2022-08-11T15:44:25;3.67;;;2.60;;
8139;SDS011;4111;50.972;7.072;2022-08-11T15:47:31;2.65;;;2.50;;
8139;SDS011;4111;50.972;7.072;2022-08-11T15:50:01;2.67;;;2.28;;
8139;SDS011;4111;50.972;7.072;2022-08-11T15:52:40;4.57;;;2.47;;
8139;SDS011;4111;50.972;7.072;2022-08-11T15:55:17;2.63;;;2.38;;
8139;SDS011;4111;50.972;7.072;2022-08-11T15:57:47;7.30;;;2.55;;
8139;SDS011;4111;50.972;7.072;2022-08-11T16:00:34;3.88;;;2.25;;
8139;SDS011;4111;50.972;7.072;2022-08-11T16:03:29;7.00;;;3.13;;
8139;SDS011;4111;50.972;7.072;2022-08-11T16:06:33;4.70;;;2.50;;
8139;SDS011;4111;50.972;7.072;2022-08-11T16:09:05;2.72;;;2.40;;
8139;SDS011;4111;50.972;7.072;2022-08-11T16:11:44;4.97;;;2.40;;
8139;SDS011;4111;50.972;7.072;2022-08-11T16:14:11;7.25;;;2.50;;
8139;SDS011;4111;50.972;7.072;2022-08-11T16:16:59;7.00;;;2.55;;
8139;SDS011;4111;50.972;7.072;2022-08-11T16:19:28;2.53;;;2.33;;
8139;SDS011;4111;50.972;7.072;2022-08-11T16:22:01;4.03;;;2.50;;
8139;SDS011;4111;50.972;7.072;2022-08-11T16:24:32;3.40;;;2.40;;
8139;SDS011;4111;50.972;7.072;2022-08-11T16:27:22;5.03;;;2.63;;
8139;SDS011;4111;50.972;7.072;2022-08-11T16:29:50;3.42;;;2.60;;
8139;SDS011;4111;50.972;7.072;2022-08-11T16:32:19;8.02;;;2.65;;
8139;SDS011;4111;50.972;7.072;2022-08-11T16:34:49;4.68;;;2.50;;
8139;SDS011;4111;50.972;7.072;2022-08-11T16:37:41;3.40;;;2.28;;
8139;SDS011;4111;50.972;7.072;2022-08-11T16:40:27;4.60;;;2.47;;
8139;SDS011;4111;50.972;7.072;2022-08-11T16:42:55;3.53;;;2.40;;
8139;SDS011;4111;50.972;7.072;2022-08-11T16:45:42;2.70;;;2.50;;
8139;SDS011;4111;50.972;7.072;2022-08-11T16:48:29;4.68;;;2.15;;
8139;SDS011;4111;50.972;7.072;2022-08-11T16:51:06;5.03;;;2.70;;
8139;SDS011;4111;50.972;7.072;2022-08-11T16:53:35;3.92;;;2.50;;
8139;SDS011;4111;50.972;7.072;2022-08-11T16:59:28;2.50;;;2.30;;
8139;SDS011;4111;50.972;7.072;2022-08-11T17:04:42;7.65;;;2.90;;
8139;SDS011;4111;50.972;7.072;2022-08-11T17:07:34;6.13;;;3.13;;
8139;SDS011;4111;50.972;7.072;2022-08-11T17:10:32;5.95;;;2.55;;
8139;SDS011;4111;50.972;7.072;2022-08-11T17:13:43;3.13;;;2.63;;
8139;SDS011;4111;50.972;7.072;2022-08-11T17:16:15;2.72;;;2.42;;
8139;SDS011;4111;50.972;7.072;2022-08-11T17:18:50;2.60;;;2.40;;
8139;SDS011;4111;50.972;7.072;2022-08-11T17:21:24;3.50;;;2.40;;
8139;SDS011;4111;50.972;7.072;2022-08-11T17:24:00;4.75;;;2.30;;
8139;SDS011;4111;50.972;7.072;2022-08-11T17:29:31;4.93;;;2.40;;
8139;SDS011;4111;50.972;7.072;2022-08-11T17:32:23;2.53;;;2.30;;
8139;SDS011;4111;50.972;7.072;2022-08-11T17:35:26;6.68;;;2.72;;
8139;SDS011;4111;50.972;7.072;2022-08-11T17:38:14;5.15;;;2.70;;
8139;SDS011;4111;50.972;7.072;2022-08-11T17:40:47;7.10;;;3.00;;
8139;SDS011;4111;50.972;7.072;2022-08-11T17:43:43;3.15;;;2.67;;
8139;SDS011;4111;50.972;7.072;2022-08-11T17:46:30;4.55;;;2.63;;
8139;SDS011;4111;50.972;7.072;2022-08-11T17:49:17;6.60;;;2.85;;
8139;SDS011;4111;50.972;7.072;2022-08-11T17:51:46;3.70;;;2.45;;
8139;SDS011;4111;50.972;7.072;2022-08-11T17:54:33;3.00;;;2.47;;
8139;SDS011;4111;50.972;7.072;2022-08-11T17:57:21;7.55;;;2.85;;
8139;SDS011;4111;50.972;7.072;2022-08-11T18:00:12;2.83;;;2.63;;
8139;SDS011;4111;50.972;7.072;2022-08-11T18:02:41;3.00;;;2.78;;
8139;SDS011;4111;50.972;7.072;2022-08-11T18:05:30;3.55;;;2.60;;
8139;SDS011;4111;50.972;7.072;2022-08-11T18:08:00;4.22;;;2.78;;
8139;SDS011;4111;50.972;7.072;2022-08-11T18:10:51;7.10;;;3.88;;
8139;SDS011;4111;50.972;7.072;2022-08-11T18:13:49;3.17;;;2.80;;
8139;SDS011;4111;50.972;7.072;2022-08-11T18:16:35;4.43;;;2.50;;
8139;SDS011;4111;50.972;7.072;2022-08-11T18:19:20;3.03;;;2.70;;
8139;SDS011;4111;50.972;7.072;2022-08-11T18:24:53;5.00;;;2.90;;
8139;SDS011;4111;50.972;7.072;2022-08-11T18:27:42;4.65;;;2.55;;
8139;SDS011;4111;50.972;7.072;2022-08-11T18:30:30;2.58;;;2.40;;
8139;SDS011;4111;50.972;7.072;2022-08-11T18:33:32;6.57;;;4.18;;
8139;SDS011;4111;50.972;7.072;2022-08-11T18:36:37;6.47;;;3.65;;
8139;SDS011;4111;50.972;7.072;2022-08-11T18:39:26;3.90;;;2.80;;
8139;SDS011;4111;50.972;7.072;2022-08-11T18:42:22;5.95;;;2.85;;
8139;SDS011;4111;50.972;7.072;2022-08-11T18:45:09;3.38;;;2.85;;
8139;SDS011;4111;50.972;7.072;2022-08-11T18:48:12;4.90;;;2.70;;
8139;SDS011;4111;50.972;7.072;2022-08-11T18:51:02;3.10;;;2.63;;
8139;SDS011;4111;50.972;7.072;2022-08-11T18:54:06;2.58;;;2.38;;
8139;SDS011;4111;50.972;7.072;2022-08-11T18:56:53;3.38;;;2.50;;
8139;SDS011;4111;50.972;7.072;2022-08-11T18:59:41;3.47;;;2.85;;
8139;SDS011;4111;50.972;7.072;2022-08-11T19:02:29;5.40;;;3.20;;
8139;SDS011;4111;50.972;7.072;2022-08-11T19:05:17;5.07;;;3.10;;
8139;SDS011;4111;50.972;7.072;2022-08-11T19:08:36;4.22;;;3.28;;
8139;SDS011;4111;50.972;7.072;2022-08-11T19:11:25;4.82;;;3.22;;
8139;SDS011;4111;50.972;7.072;2022-08-11T19:14:14;5.97;;;3.50;;
8139;SDS011;4111;50.972;7.072;2022-08-11T19:17:02;6.80;;;3.50;;
8139;SDS011;4111;50.972;7.072;2022-08-11T19:20:10;5.25;;;4.10;;
8139;SDS011;4111;50.972;7.072;2022-08-11T19:22:58;6.50;;;4.43;;
8139;SDS011;4111;50.972;7.072;2022-08-11T19:25:45;5.68;;;3.95;;
8139;SDS011;4111;50.972;7.072;2022-08-11T19:28:33;4.43;;;3.67;;
8139;SDS011;4111;50.972;7.072;2022-08-11T19:31:20;6.75;;;3.80;;
8139;SDS011;4111;50.972;7.072;2022-08-11T19:34:11;4.30;;;3.22;;
8139;SDS011;4111;50.972;7.072;2022-08-11T19:37:02;3.35;;;3.13;;
8139;SDS011;4111;50.972;7.072;2022-08-11T19:39:54;4.10;;;3.20;;
8139;SDS011;4111;50.972;7.072;2022-08-11T19:42:44;3.40;;;3.10;;
8139;SDS011;4111;50.972;7.072;2022-08-11T19:45:54;4.35;;;3.47;;
8139;SDS011;4111;50.972;7.072;2022-08-11T19:48:43;4.28;;;2.90;;
8139;SDS011;4111;50.972;7.072;2022-08-11T19:51:30;4.40;;;3.00;;
8139;SDS011;4111;50.972;7.072;2022-08-11T19:54:20;6.43;;;2.70;;
8139;SDS011;4111;50.972;7.072;2022-08-11T19:57:08;3.85;;;2.70;;
8139;SDS011;4111;50.972;7.072;2022-08-11T19:59:54;17.60;;;3.38;;